Time;durP1;ratioP1;P1;durP2;ratioP2;P2;SDS_P1;SDS_P2;PMS_P1;PMS_P2;Temp;Humidity;BMP_temperature;BMP_pressure;BME280_temperature;BME280_humidity;BME280_pressure;Samples;Min_cycle;Max_cycle;Signal;HPM_P1;HPM_P2
2021/05/15 00:00:00;;;;;;;1.50;1.00;;;;;;;9.26;73.78;95019.28;5012154;28;20393;-73
2021/05/15 00:02:25;;;;;;;1.20;1.10;;;;;;;9.24;73.83;95016.13;5009151;28;20046;-74
2021/05/15 00:04:51;;;;;;;1.02;0.93;;;;;;;9.22;73.95;95013.00;5011662;28;20044;-74
2021/05/15 00:07:16;;;;;;;3.00;1.00;;;;;;;9.16;74.38;95010.41;5007955;28;20070;-74
2021/05/15 00:09:42;;;;;;;1.33;1.05;;;;;;;9.28;73.83;95019.78;5017195;28;20046;-73
2021/05/15 00:12:08;;;;;;;1.65;1.08;;;;;;;9.23;74.22;95019.84;5018986;28;20038;-74
2021/05/15 00:14:34;;;;;;;2.35;1.00;;;;;;;9.19;75.00;95015.13;5008122;28;20052;-74
2021/05/15 00:16:59;;;;;;;3.13;1.55;;;;;;;9.19;74.31;95019.59;5006006;28;20037;-74
2021/05/15 00:19:25;;;;;;;2.38;1.00;;;;;;;9.23;75.66;95014.59;5011949;28;20420;-73
2021/05/15 00:21:51;;;;;;;0.90;0.85;;;;;;;9.26;74.39;95014.03;5027114;28;20042;-73
2021/05/15 00:24:16;;;;;;;1.60;1.05;;;;;;;9.18;76.45;95012.78;5014456;28;20577;-73
2021/05/15 00:26:42;;;;;;;2.60;1.10;;;;;;;8.95;78.12;95016.81;5016811;28;20060;-73
2021/05/15 00:29:09;;;;;;;1.05;1.00;;;;;;;8.64;80.73;95019.59;5011038;28;20042;-73
2021/05/15 00:31:35;;;;;;;3.28;1.20;;;;;;;8.52;81.55;95016.50;5011764;28;20057;-73
2021/05/15 00:34:00;;;;;;;5.43;1.40;;;;;;;8.44;85.62;95020.44;5005855;28;20193;-73
2021/05/15 00:36:26;;;;;;;2.03;1.20;;;;;;;8.30;84.79;95014.94;5001154;28;20060;-74
2021/05/15 00:38:52;;;;;;;3.08;1.17;;;;;;;8.23;86.98;95024.94;5013944;28;20065;-74
2021/05/15 00:41:17;;;;;;;1.48;1.38;;;;;;;8.13;86.61;95016.06;5013925;28;20049;-73
2021/05/15 00:43:58;;;;;;;2.83;1.20;;;;;;;8.06;86.67;95020.78;5018015;28;20117;-73
2021/05/15 00:46:27;;;;;;;1.77;1.15;;;;;;;8.02;87.60;95019.75;5000650;28;20562;-74
2021/05/15 00:48:53;;;;;;;2.35;1.23;;;;;;;8.03;87.06;95015.28;5013294;28;20553;-74
2021/05/15 00:51:20;;;;;;;1.40;1.30;;;;;;;7.94;87.99;95015.84;5012366;28;20046;-74
2021/05/15 00:53:46;;;;;;;3.30;1.40;;;;;;;7.90;89.03;95019.22;5010679;28;20050;-73
2021/05/15 00:56:12;;;;;;;1.88;1.42;;;;;;;7.86;89.16;95015.56;4992548;28;20120;-73
2021/05/15 00:58:40;;;;;;;1.90;1.40;;;;;;;7.91;89.20;95012.94;5011038;28;20072;-73
2021/05/15 01:01:06;;;;;;;1.27;1.00;;;;;;;7.88;88.44;95013.47;5004470;28;20042;-73
2021/05/15 01:03:31;;;;;;;4.20;1.33;;;;;;;7.90;87.85;95013.97;5010680;28;20049;-73
2021/05/15 01:05:57;;;;;;;1.80;1.30;;;;;;;7.86;87.96;95020.78;5008823;28;20044;-73
2021/05/15 01:08:23;;;;;;;2.05;1.30;;;;;;;7.85;88.23;95014.00;5007114;28;20113;-73
2021/05/15 01:10:49;;;;;;;3.38;1.35;;;;;;;7.83;89.23;95016.09;5006338;28;20068;-73
2021/05/15 01:13:14;;;;;;;1.48;1.35;;;;;;;7.78;89.67;95014.25;5009576;28;20076;-73
2021/05/15 01:15:40;;;;;;;1.55;1.27;;;;;;;7.75;89.49;95015.56;5015271;28;20525;-73
2021/05/15 01:18:05;;;;;;;2.38;1.27;;;;;;;7.78;88.94;95015.03;5000901;28;20038;-73
2021/05/15 01:20:32;;;;;;;2.60;1.23;;;;;;;7.74;87.61;95016.63;5017862;28;20038;-73
2021/05/15 01:22:59;;;;;;;1.80;0.95;;;;;;;7.75;87.38;95015.56;5006317;28;20053;-73
2021/05/15 01:25:26;;;;;;;1.52;1.20;;;;;;;7.73;87.65;95012.44;5018667;28;20433;-73
2021/05/15 01:27:52;;;;;;;2.13;1.15;;;;;;;7.73;88.25;95012.44;5004750;28;20042;-73
2021/05/15 01:30:20;;;;;;;1.10;1.02;;;;;;;7.71;88.78;95009.28;5011137;28;20057;-73
2021/05/15 01:32:46;;;;;;;1.63;1.10;;;;;;;7.66;88.33;95014.53;5010787;28;20706;-73
2021/05/15 01:35:15;;;;;;;1.85;1.02;;;;;;;7.70;87.34;95010.34;5006330;28;20430;-73
2021/05/15 01:37:42;;;;;;;2.78;1.10;;;;;;;7.70;87.19;95007.72;5008975;28;20048;-73
2021/05/15 01:40:08;;;;;;;1.58;1.00;;;;;;;7.68;87.44;95011.66;5018355;28;20415;-73
2021/05/15 01:42:34;;;;;;;1.10;1.00;;;;;;;7.67;87.05;95010.88;5009720;28;20041;-73
2021/05/15 01:45:00;;;;;;;1.10;1.10;;;;;;;7.68;87.52;95015.03;5022914;28;20321;-73
2021/05/15 01:47:26;;;;;;;1.35;1.10;;;;;;;7.67;87.17;95010.06;5012420;28;20038;-73
2021/05/15 01:49:52;;;;;;;0.77;0.77;;;;;;;7.68;86.78;95015.03;5007674;28;20049;-73
2021/05/15 01:52:17;;;;;;;1.65;1.10;;;;;;;7.65;86.61;95017.41;5005381;28;20042;-73
2021/05/15 01:54:43;;;;;;;1.25;1.10;;;;;;;7.61;87.34;95010.09;5008633;28;20128;-73
2021/05/15 01:57:09;;;;;;;1.67;1.20;;;;;;;7.59;87.40;95011.41;4999548;28;20043;-73
2021/05/15 01:59:35;;;;;;;1.55;1.05;;;;;;;7.57;87.65;95016.09;5018204;28;20514;-73
2021/05/15 02:02:01;;;;;;;1.15;1.05;;;;;;;7.52;88.47;95011.66;5017433;28;20038;-73
2021/05/15 02:04:26;;;;;;;2.20;1.35;;;;;;;7.46;89.05;95016.09;5012991;28;20048;-73
2021/05/15 02:06:52;;;;;;;1.52;1.38;;;;;;;7.41;90.33;95007.44;4991137;28;20042;-73
2021/05/15 02:09:18;;;;;;;1.90;1.10;;;;;;;7.35;91.74;95011.91;5003350;28;20042;-73
2021/05/15 02:11:43;;;;;;;6.95;1.52;;;;;;;7.38;90.79;95006.13;5009536;28;20045;-73
2021/05/15 02:14:09;;;;;;;1.63;1.30;;;;;;;7.29;91.80;95007.72;5039305;28;20045;-73
2021/05/15 02:16:35;;;;;;;3.10;1.20;;;;;;;7.25;93.02;95012.66;5011518;28;20050;-73
2021/05/15 02:19:00;;;;;;;2.38;1.25;;;;;;;7.25;92.54;95009.28;5008833;28;20038;-73
2021/05/15 02:21:26;;;;;;;2.00;1.42;;;;;;;7.23;92.27;95014.00;5010798;28;20121;-73
2021/05/15 02:23:52;;;;;;;2.47;1.30;;;;;;;7.22;93.54;95017.66;5018470;28;20407;-73
2021/05/15 02:26:19;;;;;;;1.88;1.20;;;;;;;7.23;92.58;95014.78;4993069;28;20096;-73
2021/05/15 02:28:46;;;;;;;1.63;1.40;;;;;;;7.24;93.68;95010.31;5012702;28;20038;-73
2021/05/15 02:31:11;;;;;;;2.42;1.40;;;;;;;7.19;93.41;95005.09;5005857;28;20074;-73
2021/05/15 02:33:37;;;;;;;1.58;1.23;;;;;;;7.17;92.83;95015.00;5000191;28;20054;-73
2021/05/15 02:36:02;;;;;;;1.83;1.27;;;;;;;7.16;93.75;95006.38;5011087;28;20050;-73
2021/05/15 02:38:28;;;;;;;1.40;1.30;;;;;;;7.24;93.80;95007.69;4995372;28;20041;-73
2021/05/15 02:40:54;;;;;;;1.40;1.30;;;;;;;7.22;93.21;95007.97;5013267;28;20389;-73
2021/05/15 02:43:20;;;;;;;1.65;1.55;;;;;;;7.15;93.42;95009.25;5017987;28;20045;-73
2021/05/15 02:45:46;;;;;;;1.42;1.30;;;;;;;7.17;93.31;95015.00;5017828;28;20042;-73
2021/05/15 02:48:18;;;;;;;1.98;1.42;;;;;;;7.14;93.98;95015.53;5005581;28;20488;-73
2021/05/15 02:50:49;;;;;;;1.48;1.10;;;;;;;7.15;93.21;95006.66;5013266;28;20042;-73
2021/05/15 02:53:15;;;;;;;2.72;1.42;;;;;;;7.07;92.75;95013.97;5022024;28;20058;-73
2021/05/15 02:55:41;;;;;;;2.25;1.30;;;;;;;7.03;91.80;95015.53;5016654;28;20073;-72
2021/05/15 02:58:07;;;;;;;1.30;1.20;;;;;;;6.98;93.33;95006.88;5023332;28;20053;-72
2021/05/15 03:00:33;;;;;;;1.48;1.38;;;;;;;7.00;93.72;95005.56;5014215;28;20046;-72
2021/05/15 03:02:59;;;;;;;1.45;1.23;;;;;;;6.97;93.25;95011.31;5002147;28;20056;-73
2021/05/15 03:05:26;;;;;;;2.65;1.30;;;;;;;6.92;93.87;95003.44;5018698;28;20124;-73
2021/05/15 03:07:53;;;;;;;2.63;1.40;;;;;;;6.96;94.11;95009.75;5011159;28;20041;-72
2021/05/15 03:10:22;;;;;;;2.17;1.50;;;;;;;6.99;93.28;95009.22;5023500;28;20420;-73
2021/05/15 03:12:48;;;;;;;1.55;1.30;;;;;;;6.96;94.01;95012.38;5020000;28;20068;-73
2021/05/15 03:15:14;;;;;;;1.00;0.98;;;;;;;6.93;94.40;95011.03;5018637;28;20479;-73
2021/05/15 03:17:41;;;;;;;2.58;1.40;;;;;;;6.90;93.80;95010.78;5001902;28;20039;-73
2021/05/15 03:20:09;;;;;;;1.38;1.27;;;;;;;6.92;94.23;95008.69;5019613;28;20100;-72
2021/05/15 03:22:35;;;;;;;1.58;1.15;;;;;;;6.92;93.78;95013.91;5025308;28;20041;-73
2021/05/15 03:25:01;;;;;;;2.90;1.35;;;;;;;6.85;94.16;95008.16;5013756;28;20038;-73
2021/05/15 03:27:27;;;;;;;2.67;1.50;;;;;;;6.88;94.75;95013.66;4998778;28;20038;-73
2021/05/15 03:29:52;;;;;;;1.30;1.20;;;;;;;6.84;94.71;95007.38;5008695;28;20049;-73
2021/05/15 03:32:18;;;;;;;1.90;1.20;;;;;;;6.81;94.76;95012.31;5012984;28;20117;-73
2021/05/15 03:34:45;;;;;;;1.85;1.20;;;;;;;6.81;94.38;95007.09;5012764;28;20043;-73
2021/05/15 03:37:11;;;;;;;3.05;1.20;;;;;;;6.81;94.60;95002.66;5028670;28;20045;-73
2021/05/15 03:39:36;;;;;;;1.13;1.05;;;;;;;6.88;94.14;95007.63;5010734;28;20049;-73
2021/05/15 03:42:02;;;;;;;1.35;1.10;;;;;;;6.92;93.92;95006.06;5013147;28;20042;-73
2021/05/15 03:44:28;;;;;;;1.70;1.20;;;;;;;6.90;94.04;95000.31;5016696;28;20475;-72
2021/05/15 03:46:53;;;;;;;1.00;1.00;;;;;;;6.92;94.20;94998.22;5012226;28;20403;-72
2021/05/15 03:49:19;;;;;;;1.90;1.10;;;;;;;6.86;94.00;94999.25;5022792;28;20104;-73
2021/05/15 03:51:45;;;;;;;1.70;1.20;;;;;;;6.91;93.76;94996.63;5016066;28;20037;-73
2021/05/15 03:54:10;;;;;;;1.00;1.00;;;;;;;6.83;94.31;95005.00;5019050;28;20038;-73
2021/05/15 03:56:36;;;;;;;1.30;1.20;;;;;;;6.82;94.43;94998.97;5020662;28;20396;-73
2021/05/15 03:59:03;;;;;;;1.20;1.10;;;;;;;6.75;94.20;95014.94;5000318;28;20042;-73
2021/05/15 04:01:28;;;;;;;1.00;0.98;;;;;;;6.85;93.78;95008.94;5012484;28;20500;-73
2021/05/15 04:03:54;;;;;;;2.03;1.20;;;;;;;6.82;93.39;95003.44;5007841;28;20033;-73
2021/05/15 04:06:19;;;;;;;1.23;1.10;;;;;;;6.89;93.58;95003.97;5016490;28;20046;-73
2021/05/15 04:08:45;;;;;;;1.15;1.00;;;;;;;6.83;93.65;95005.00;5008856;28;20061;-73
2021/05/15 04:11:11;;;;;;;0.98;0.93;;;;;;;6.91;93.26;95012.34;5010604;28;20121;-73
2021/05/15 04:16:43;;;;;;;3.63;1.65;;;;;;;6.84;93.67;95009.19;5022660;28;20064;-73
2021/05/15 04:19:09;;;;;;;0.80;0.80;;;;;;;6.86;93.46;95012.34;5009827;28;20049;-73
2021/05/15 04:21:34;;;;;;;1.77;1.13;;;;;;;6.92;93.24;95013.91;5011967;28;20041;-73
2021/05/15 04:24:00;;;;;;;0.95;0.90;;;;;;;6.95;92.28;95013.41;5011477;28;20491;-73
2021/05/15 04:26:25;;;;;;;2.15;1.20;;;;;;;6.93;93.67;95012.88;5016814;28;20050;-73
2021/05/15 04:28:51;;;;;;;1.23;1.13;;;;;;;6.94;92.69;95017.06;5010128;28;20061;-73
2021/05/15 04:31:16;;;;;;;1.20;1.10;;;;;;;6.96;92.80;95014.97;5014806;28;20042;-73
2021/05/15 04:33:42;;;;;;;2.65;1.20;;;;;;;6.87;93.75;95017.31;5021369;28;20045;-73
2021/05/15 04:36:08;;;;;;;1.98;1.05;;;;;;;6.88;94.07;95013.66;5010069;28;20037;-73
2021/05/15 04:38:33;;;;;;;1.05;1.05;;;;;;;6.91;93.23;95013.13;5003997;28;20046;-73
2021/05/15 04:40:58;;;;;;;0.90;0.90;;;;;;;6.93;93.48;95015.50;5011336;28;20056;-73
2021/05/15 04:43:24;;;;;;;1.70;1.10;;;;;;;6.98;93.19;95018.09;5015036;28;20049;-73
2021/05/15 04:45:52;;;;;;;1.70;1.05;;;;;;;7.01;93.68;95027.28;5017805;28;20042;-73
2021/05/15 04:48:17;;;;;;;1.35;1.10;;;;;;;6.97;93.16;95027.03;5011145;28;20468;-73
2021/05/15 04:50:43;;;;;;;2.08;0.98;;;;;;;7.02;92.29;95024.41;4994610;28;20061;-73
2021/05/15 04:53:08;;;;;;;1.10;0.98;;;;;;;7.01;93.26;95022.84;5019293;28;20041;-73
2021/05/15 04:55:34;;;;;;;1.30;1.20;;;;;;;7.06;92.91;95030.69;5013988;28;20073;-72
2021/05/15 04:58:00;;;;;;;1.33;1.00;;;;;;;7.16;92.42;95029.94;5007586;28;20473;-73
2021/05/15 05:00:27;;;;;;;1.05;1.00;;;;;;;7.12;93.21;95034.09;4997085;28;20049;-73
2021/05/15 05:02:52;;;;;;;2.63;1.20;;;;;;;7.13;93.44;95024.44;5010380;28;20045;-73
2021/05/15 05:05:18;;;;;;;3.45;1.08;;;;;;;7.20;92.59;95019.75;5021827;28;20419;-73
2021/05/15 05:07:44;;;;;;;1.50;0.80;;;;;;;7.15;92.08;95024.97;5028685;28;20042;-73
2021/05/15 05:10:10;;;;;;;1.23;1.13;;;;;;;7.21;92.10;95024.72;5016725;28;20117;-72
2021/05/15 05:12:36;;;;;;;1.33;0.90;;;;;;;7.25;92.74;95024.97;5013605;28;20061;-72
2021/05/15 05:15:02;;;;;;;2.20;1.20;;;;;;;7.27;92.97;95025.50;5014867;28;20042;-73
2021/05/15 05:17:28;;;;;;;2.22;1.40;;;;;;;7.34;92.98;95031.28;5005719;28;20507;-73
2021/05/15 05:19:53;;;;;;;1.05;0.98;;;;;;;7.36;92.17;95023.94;5009409;28;20033;-73
2021/05/15 05:22:19;;;;;;;1.23;1.08;;;;;;;7.50;92.86;95023.44;5006543;28;20046;-72
2021/05/15 05:24:45;;;;;;;1.00;1.00;;;;;;;7.44;92.71;95020.81;5008413;28;20553;-73
2021/05/15 05:27:13;;;;;;;1.52;1.40;;;;;;;7.41;92.47;95016.09;5003676;28;20042;-73
2021/05/15 05:29:38;;;;;;;1.08;0.85;;;;;;;7.45;92.34;95011.91;5009799;28;20046;-72
2021/05/15 05:32:08;;;;;;;0.88;0.80;;;;;;;7.41;92.52;95018.72;5010971;28;20475;-73
2021/05/15 05:34:35;;;;;;;1.05;0.98;;;;;;;7.46;93.25;95012.69;5023925;28;20462;-73
2021/05/15 05:37:01;;;;;;;1.02;0.98;;;;;;;7.49;92.67;95001.69;5008252;28;20045;-73
2021/05/15 05:39:27;;;;;;;1.33;1.08;;;;;;;7.60;92.47;95007.72;5012411;28;20041;-73
2021/05/15 05:41:52;;;;;;;1.13;1.02;;;;;;;7.64;91.91;95003.53;5018927;28;20037;-73
2021/05/15 05:44:18;;;;;;;1.63;1.15;;;;;;;7.71;91.00;95004.03;5010955;28;20073;-73
2021/05/15 05:46:44;;;;;;;1.00;0.90;;;;;;;7.79;91.73;95008.75;5010723;28;20042;-73
2021/05/15 05:49:09;;;;;;;1.67;1.00;;;;;;;7.91;90.75;95007.69;5002091;28;20033;-73
2021/05/15 05:51:35;;;;;;;1.92;0.90;;;;;;;7.92;90.12;95011.91;5008670;28;20045;-73
2021/05/15 05:54:00;;;;;;;1.20;1.10;;;;;;;8.04;91.68;95007.16;5014960;28;20049;-73
2021/05/15 05:56:26;;;;;;;1.33;0.90;;;;;;;8.15;90.07;95003.47;4993287;28;20052;-73
2021/05/15 05:58:52;;;;;;;1.42;1.20;;;;;;;8.15;91.22;94998.22;5002793;28;20042;-72
2021/05/15 06:01:17;;;;;;;2.15;1.02;;;;;;;8.17;90.57;95012.91;5008843;28;20120;-73
2021/05/15 06:03:43;;;;;;;2.53;1.20;;;;;;;8.17;91.51;95015.53;5011817;28;20044;-73
2021/05/15 06:06:10;;;;;;;1.67;1.15;;;;;;;8.18;89.99;95001.38;5022791;28;20503;-73
2021/05/15 06:08:36;;;;;;;0.93;0.93;;;;;;;8.23;91.46;95009.22;5010259;28;20034;-72
2021/05/15 06:11:03;;;;;;;1.27;1.10;;;;;;;8.22;91.31;95005.03;5015534;28;20048;-73
2021/05/15 06:13:28;;;;;;;0.90;0.90;;;;;;;8.22;91.28;95007.66;5018627;28;20045;-73
2021/05/15 06:15:54;;;;;;;1.52;0.80;;;;;;;8.15;88.94;95002.69;5016012;28;20061;-73
2021/05/15 06:18:20;;;;;;;0.90;0.90;;;;;;;8.25;89.90;95009.75;5021304;28;20037;-72
2021/05/15 06:20:47;;;;;;;1.73;1.15;;;;;;;8.36;90.73;95008.66;5014350;28;20562;-72
2021/05/15 06:23:14;;;;;;;1.33;1.10;;;;;;;8.56;89.93;95007.03;5012845;28;20042;-73
2021/05/15 06:25:39;;;;;;;1.10;1.00;;;;;;;8.69;89.66;95009.06;5012553;28;20048;-73
2021/05/15 06:28:05;;;;;;;1.30;0.98;;;;;;;8.69;88.68;95001.19;5012942;28;20333;-72
2021/05/15 06:30:31;;;;;;;1.02;0.88;;;;;;;8.72;87.86;95000.69;5017547;28;20038;-72
2021/05/15 06:32:56;;;;;;;1.48;1.08;;;;;;;8.74;90.65;94998.56;5012739;28;20093;-73
2021/05/15 06:35:22;;;;;;;1.00;1.00;;;;;;;8.83;88.59;95001.41;5012274;28;20400;-69
2021/05/15 06:37:48;;;;;;;0.85;0.80;;;;;;;8.79;86.16;95001.19;5008112;28;20041;-69
2021/05/15 06:40:13;;;;;;;1.27;1.00;;;;;;;8.86;87.43;95000.09;5007234;28;20060;-69
2021/05/15 06:42:39;;;;;;;1.10;1.00;;;;;;;8.95;86.36;95003.72;5014370;28;20120;-69
2021/05/15 06:45:07;;;;;;;2.15;0.80;;;;;;;9.07;85.55;94996.31;5002687;28;20073;-69
2021/05/15 06:47:33;;;;;;;0.70;0.70;;;;;;;9.25;86.78;95001.97;5017321;28;20056;-71
2021/05/15 06:50:00;;;;;;;2.42;1.08;;;;;;;9.47;87.80;94999.72;5008759;28;20064;-71
2021/05/15 06:52:26;;;;;;;0.90;0.90;;;;;;;9.57;85.85;95000.69;5010783;28;20042;-71
2021/05/15 06:54:51;;;;;;;1.05;0.90;;;;;;;9.60;85.12;94997.53;5011676;28;20068;-70
2021/05/15 06:57:18;;;;;;;1.38;0.95;;;;;;;9.68;85.47;94991.66;5010449;28;20041;-70
2021/05/15 06:59:43;;;;;;;3.28;0.90;;;;;;;9.72;83.99;94984.78;5021020;28;20059;-70
2021/05/15 07:02:09;;;;;;;1.27;0.95;;;;;;;9.69;83.63;94990.59;5031150;28;20073;-70
2021/05/15 07:04:34;;;;;;;0.68;0.68;;;;;;;9.95;81.68;94993.00;5013909;28;20045;-70
2021/05/15 07:07:00;;;;;;;1.90;1.10;;;;;;;10.09;81.24;94988.66;5010292;28;20038;-70
2021/05/15 07:09:25;;;;;;;1.40;0.90;;;;;;;10.08;79.73;94992.34;5018827;28;20120;-71
2021/05/15 07:11:51;;;;;;;0.63;0.63;;;;;;;10.15;79.46;94992.03;5014299;28;20057;-72
2021/05/15 07:14:17;;;;;;;1.45;1.13;;;;;;;10.34;79.93;94986.84;5009484;28;20051;-70
2021/05/15 07:16:43;;;;;;;0.80;0.77;;;;;;;10.45;79.07;94985.66;5013143;28;20037;-71
2021/05/15 07:19:09;;;;;;;0.70;0.70;;;;;;;10.25;79.25;94980.63;5011106;28;20041;-70
2021/05/15 07:21:35;;;;;;;0.90;0.90;;;;;;;10.47;79.37;94983.53;5013134;28;20412;-70
2021/05/15 07:24:01;;;;;;;0.93;0.93;;;;;;;10.55;76.93;94976.88;5013826;28;20042;-71
2021/05/15 07:26:27;;;;;;;2.22;0.77;;;;;;;10.58;78.33;94971.81;5016042;28;20045;-71
2021/05/15 07:28:53;;;;;;;1.67;1.00;;;;;;;10.68;80.20;94972.78;5013595;28;20045;-71
2021/05/15 07:31:19;;;;;;;0.88;0.75;;;;;;;10.92;76.87;94978.00;5014223;28;20077;-71
2021/05/15 07:33:44;;;;;;;1.27;0.85;;;;;;;11.07;78.24;94975.13;5013172;28;20049;-71
2021/05/15 07:36:10;;;;;;;0.90;0.85;;;;;;;11.09;74.66;94972.22;5009314;28;20420;-71
2021/05/15 07:38:37;;;;;;;1.02;0.90;;;;;;;11.18;70.51;94970.53;5007709;28;20166;-71
2021/05/15 07:41:04;;;;;;;0.77;0.77;;;;;;;10.98;71.73;94973.44;5011034;28;20402;-71
2021/05/15 07:43:30;;;;;;;0.70;0.63;;;;;;;10.97;68.74;94966.59;4994017;28;20109;-70
2021/05/15 07:45:58;;;;;;;1.63;1.00;;;;;;;11.07;70.20;94963.81;5009799;28;20049;-71
2021/05/15 07:48:41;;;;;;;0.75;0.60;;;;;;;11.17;68.32;94963.69;4998442;28;20046;-71
2021/05/15 07:51:09;;;;;;;0.65;0.65;;;;;;;11.41;71.47;94968.09;5030743;28;20046;-70
2021/05/15 07:53:35;;;;;;;0.98;0.75;;;;;;;11.42;67.55;94954.63;5018060;28;20097;-71
2021/05/15 07:56:02;;;;;;;0.65;0.60;;;;;;;11.44;71.15;94954.31;4997951;28;20046;-71
2021/05/15 07:58:28;;;;;;;1.00;0.77;;;;;;;11.22;72.76;94960.97;5010371;28;20054;-71
2021/05/15 08:00:54;;;;;;;1.13;0.80;;;;;;;11.33;70.70;94950.28;5015241;28;20088;-71
2021/05/15 08:03:19;;;;;;;1.75;0.77;;;;;;;11.23;68.23;94957.28;5012977;28;20117;-71
2021/05/15 08:05:45;;;;;;;0.73;0.57;;;;;;;11.30;67.28;94948.22;5006721;28;20057;-71
2021/05/15 08:08:10;;;;;;;1.10;0.75;;;;;;;11.34;63.92;94941.31;5007578;28;20129;-71
2021/05/15 08:10:36;;;;;;;1.10;0.70;;;;;;;11.35;71.40;94942.88;5010610;28;20056;-71
2021/05/15 08:13:02;;;;;;;2.28;0.80;;;;;;;11.24;65.75;94943.03;5001810;28;20045;-71
2021/05/15 08:15:28;;;;;;;1.30;0.80;;;;;;;11.49;66.55;94933.16;4994786;28;20038;-71
2021/05/15 08:17:54;;;;;;;0.63;0.63;;;;;;;11.53;60.34;94923.59;5011085;28;20121;-71
2021/05/15 08:20:22;;;;;;;0.50;0.50;;;;;;;11.43;61.37;94923.78;5011667;28;20033;-71
2021/05/15 08:22:47;;;;;;;1.05;0.47;;;;;;;11.50;61.44;94918.91;5012864;28;20393;-71
2021/05/15 08:25:14;;;;;;;0.43;0.40;;;;;;;11.76;64.43;94910.56;4996673;28;20049;-71
2021/05/15 08:27:41;;;;;;;1.15;0.80;;;;;;;11.84;60.46;94909.91;5005279;28;20108;-70
2021/05/15 08:30:09;;;;;;;0.63;0.63;;;;;;;11.86;59.70;94907.75;5002586;28;20087;-70
2021/05/15 08:32:35;;;;;;;3.55;0.80;;;;;;;11.94;59.47;94907.09;5018922;28;20044;-70
2021/05/15 08:35:01;;;;;;;0.93;0.70;;;;;;;12.14;62.20;94910.44;5014465;28;20124;-71
2021/05/15 08:37:27;;;;;;;1.15;0.93;;;;;;;12.04;60.78;94918.53;5007121;28;20073;-72
2021/05/15 08:39:53;;;;;;;1.50;0.70;;;;;;;12.12;58.80;94917.84;5000922;28;20481;-72
2021/05/15 08:42:20;;;;;;;0.80;0.70;;;;;;;12.27;59.71;94909.66;5000325;28;20040;-72
2021/05/15 08:44:48;;;;;;;0.85;0.80;;;;;;;12.17;62.31;94915.13;5009438;28;20407;-72
2021/05/15 08:47:17;;;;;;;0.73;0.40;;;;;;;12.03;58.21;94914.34;5008861;28;20108;-72
2021/05/15 08:49:46;;;;;;;1.70;0.77;;;;;;;12.16;62.54;94913.56;5010568;28;20060;-72
2021/05/15 08:52:16;;;;;;;0.55;0.55;;;;;;;12.39;57.43;94905.72;5014680;28;21381;-72
2021/05/15 08:54:41;;;;;;;0.85;0.85;;;;;;;12.45;58.46;94888.72;5009214;28;20058;-72
2021/05/15 08:57:08;;;;;;;0.60;0.60;;;;;;;12.68;58.20;94896.69;5015403;28;20046;-72
2021/05/15 08:59:33;;;;;;;0.77;0.77;;;;;;;12.70;62.10;94899.78;5004488;28;20542;-72
2021/05/15 09:02:00;;;;;;;0.60;0.60;;;;;;;12.53;56.64;94895.94;5008519;28;20125;-69
2021/05/15 09:04:26;;;;;;;0.80;0.80;;;;;;;12.34;62.84;94897.91;5007552;28;20467;-69
2021/05/15 09:06:53;;;;;;;0.73;0.60;;;;;;;12.52;56.36;94897.00;4992129;28;20042;-69
2021/05/15 09:09:19;;;;;;;0.70;0.60;;;;;;;12.58;54.11;94890.53;5009212;28;20038;-69
2021/05/15 09:11:47;;;;;;;0.50;0.50;;;;;;;12.68;54.66;94891.41;5024146;28;20479;-69
2021/05/15 09:14:17;;;;;;;1.73;0.70;;;;;;;12.79;62.79;94888.25;5017216;28;20041;-69
2021/05/15 09:16:51;;;;;;;0.70;0.70;;;;;;;13.00;55.88;94885.91;5018600;28;20066;-70
2021/05/15 09:19:28;;;;;;;0.80;0.80;;;;;;;13.10;55.36;94884.91;5014021;28;20038;-70
2021/05/15 09:22:01;;;;;;;0.50;0.50;;;;;;;12.70;58.20;94881.31;4998095;28;20127;-70
2021/05/15 09:24:29;;;;;;;0.70;0.60;;;;;;;12.78;60.16;94880.63;5023907;28;20045;-69
2021/05/15 09:26:55;;;;;;;1.63;0.65;;;;;;;13.22;59.97;94878.31;5005097;28;20041;-69
2021/05/15 09:29:20;;;;;;;2.88;0.73;;;;;;;12.94;51.79;94884.50;5016203;28;20068;-69
2021/05/15 09:31:48;;;;;;;0.60;0.60;;;;;;;13.16;51.82;94882.94;4991484;28;20050;-69
2021/05/15 09:34:13;;;;;;;1.10;0.77;;;;;;;13.13;50.92;94870.31;5002819;28;20060;-69
2021/05/15 09:36:45;;;;;;;0.45;0.45;;;;;;;13.08;49.54;94870.44;5012237;28;20054;-70
2021/05/15 09:39:22;;;;;;;2.08;0.98;;;;;;;12.85;52.84;94870.41;5006591;28;20053;-70
2021/05/15 09:41:49;;;;;;;0.98;0.60;;;;;;;13.08;56.85;94868.56;5018009;28;20052;-70
2021/05/15 09:44:26;;;;;;;0.73;0.70;;;;;;;13.10;53.05;94865.63;5012328;28;20404;-70
2021/05/15 09:46:52;;;;;;;1.65;0.80;;;;;;;13.10;57.58;94865.63;5008368;28;20060;-69
2021/05/15 09:49:22;;;;;;;1.52;0.85;;;;;;;12.91;54.20;94860.53;5005719;28;20045;-71
2021/05/15 09:51:53;;;;;;;1.35;0.75;;;;;;;13.13;55.89;94859.72;5010399;28;20439;-70
2021/05/15 09:54:30;;;;;;;1.15;0.70;;;;;;;13.08;50.30;94857.22;5009782;28;20054;-69
2021/05/15 09:57:07;;;;;;;0.82;0.70;;;;;;;13.29;52.12;94858.28;4999245;28;20485;-69
2021/05/15 09:59:38;;;;;;;0.68;0.60;;;;;;;13.29;55.46;94853.00;5010450;28;20034;-70
2021/05/15 10:02:06;;;;;;;0.55;0.55;;;;;;;13.33;53.47;94853.16;4991633;28;20045;-69
2021/05/15 10:04:32;;;;;;;0.85;0.70;;;;;;;13.52;51.62;94855.66;5005759;28;20041;-69
2021/05/15 10:06:59;;;;;;;0.80;0.68;;;;;;;13.52;50.46;94850.38;5006393;28;20045;-69
2021/05/15 10:09:33;;;;;;;2.30;1.00;;;;;;;13.73;47.88;94849.81;5002136;28;20064;-70
2021/05/15 10:12:01;;;;;;;0.63;0.50;;;;;;;13.85;47.40;94844.75;5008971;28;20045;-72
2021/05/15 10:14:27;;;;;;;0.60;0.60;;;;;;;13.97;44.56;94839.63;5006908;28;21645;-72
2021/05/15 10:16:53;;;;;;;2.28;0.95;;;;;;;14.08;47.90;94839.34;5012057;28;20056;-71
2021/05/15 10:19:20;;;;;;;1.30;0.80;;;;;;;13.92;51.44;94837.16;5008048;28;20415;-72
2021/05/15 10:21:47;;;;;;;0.93;0.60;;;;;;;13.78;51.42;94836.47;5013545;28;20473;-71
2021/05/15 10:24:25;;;;;;;0.80;0.80;;;;;;;13.72;53.23;94829.75;5012075;28;20055;-71
2021/05/15 10:27:03;;;;;;;0.90;0.73;;;;;;;14.41;56.97;94820.41;5014633;28;20403;-71
2021/05/15 10:29:48;;;;;;;0.82;0.60;;;;;;;14.73;49.36;94821.88;5012971;28;20284;-72
2021/05/15 10:32:14;;;;;;;0.65;0.60;;;;;;;14.94;52.81;94811.44;5012349;28;20362;-72
2021/05/15 10:34:39;;;;;;;0.52;0.52;;;;;;;15.08;47.30;94805.94;5010986;28;20535;-72
2021/05/15 10:37:15;;;;;;;0.80;0.80;;;;;;;15.22;45.48;94800.44;5010973;28;20041;-71
2021/05/15 10:39:40;;;;;;;1.40;0.82;;;;;;;15.13;47.56;94797.03;5008120;28;20388;-71
2021/05/15 10:42:06;;;;;;;0.65;0.65;;;;;;;14.88;46.77;94796.75;5014734;28;21804;-72
2021/05/15 10:44:39;;;;;;;1.90;1.10;;;;;;;14.33;53.55;94787.56;5012751;28;20041;-79
2021/05/15 10:47:05;;;;;;;1.02;0.82;;;;;;;13.92;55.69;94794.03;5015114;28;20049;-70
2021/05/15 10:49:31;;;;;;;1.77;1.00;;;;;;;14.20;48.60;94781.34;5012250;28;20096;-72
2021/05/15 10:52:11;;;;;;;1.60;0.80;;;;;;;14.44;50.35;94777.44;5013065;28;20054;-72
2021/05/15 10:54:40;;;;;;;1.00;0.70;;;;;;;14.36;53.26;94773.72;5010835;28;20384;-72
2021/05/15 10:57:07;;;;;;;0.65;0.63;;;;;;;14.83;53.86;94767.81;5019216;28;20030;-72
2021/05/15 10:59:35;;;;;;;2.22;0.75;;;;;;;14.85;45.76;94760.31;5009659;28;20077;-72
2021/05/15 11:02:05;;;;;;;1.38;0.80;;;;;;;14.75;48.38;94760.66;5012056;28;20060;-72
2021/05/15 11:04:33;;;;;;;1.10;0.68;;;;;;;14.49;47.66;94769.34;5015860;28;20400;-72
2021/05/15 11:07:00;;;;;;;0.65;0.65;;;;;;;14.42;52.44;94769.03;5020117;28;20049;-72
2021/05/15 11:09:26;;;;;;;0.50;0.50;;;;;;;14.59;52.21;94768.25;5030978;28;20065;-72
2021/05/15 11:11:52;;;;;;;1.77;0.70;;;;;;;14.48;46.93;94770.44;5035650;28;20491;-72
2021/05/15 11:14:31;;;;;;;2.03;0.88;;;;;;;15.17;47.46;94755.56;5015113;28;20497;-73
2021/05/15 11:17:10;;;;;;;1.08;0.70;;;;;;;16.24;47.83;94758.19;5033570;28;20414;-73
2021/05/15 11:19:37;;;;;;;0.93;0.82;;;;;;;17.21;48.88;94747.47;5004206;28;20038;-74
2021/05/15 11:22:04;;;;;;;0.85;0.73;;;;;;;17.60;42.08;94746.09;5011293;28;20053;-73
2021/05/15 11:24:34;;;;;;;0.77;0.77;;;;;;;17.17;42.59;94743.91;5003573;28;20066;-72
2021/05/15 11:27:11;;;;;;;1.02;0.90;;;;;;;17.10;43.26;94734.63;5019930;28;20511;-71
2021/05/15 11:29:37;;;;;;;1.13;0.88;;;;;;;16.38;45.06;94737.47;5017423;28;20093;-71
2021/05/15 11:32:14;;;;;;;1.10;0.95;;;;;;;16.72;46.66;94735.59;5014784;28;20507;-71
2021/05/15 11:34:41;;;;;;;1.05;0.95;;;;;;;15.66;48.03;94724.19;5023371;28;20053;-70
2021/05/15 11:37:09;;;;;;;1.08;0.90;;;;;;;17.19;44.38;94715.13;5016939;28;20077;-69
2021/05/15 11:39:36;;;;;;;1.00;0.90;;;;;;;17.84;40.86;94724.00;5011035;28;20076;-73